Historyczne dane pomiarowe

Dodano dane terminowe – wersja testowa.

Dane z okresu 1951-2019

Wersja bazy: 1.34 [2019-03-16, lista zmian], aktualizacja planowana na 2019-04-15

Dane meteo z obszaru Polski uzyskane na podstawie danych udostępnionych przez Instytut Meteorologii i Gospodarki Wodnej – Państwowy Instytut Badawczy.

 

Wybierz Datę:    

       

TemperaturaWilgotnośćWiatrCiśnienieOpadyŚniegCzas trwania zjawisk
 Stacja t tx tn tng RH VA  wxwx mslp ppp RRR   cm mm wxwxwxwxwxwxwx
2011-02-14 -4.5 -0.7 -7.0 -8.4-- 7.0 2.7---- 0.0------------
2011-02-15 -7.1 -2.2-10.5-14.8-- 3.3 3.3---- 0.3------------
2011-02-16 -4.9 -2.3 -7.7-13.5-- 8.0 2.3---- 0.0------------
2011-02-17 -0.2 3.7 -2.7 -5.1-- 8.0 2.3---- 0.8------------
2011-02-18 0.8 4.3 -1.3 -1.8-- 8.0 1.3---- 1.0-- 1---------
2011-02-19 -2.0 0.8 -4.0 -4.2-- 8.0 2.7---- 1.1-- 1---------
2011-02-20 -8.1 -2.3-11.7-15.4-- 8.0 2.7---- 0.8-- 3---------
2011-02-21-10.5 -8.4-13.5-18.7-- 8.0 1.7---- 0.1-- 4---------
2011-02-22-12.9 -8.8-17.6-19.5-- 6.0 1.7---- 0.5-- 2---------
2011-02-23-12.1 -6.7-18.0-19.4-- 7.3 2.0---- 0.7-- 3---------
2011-02-24-12.1 -5.6-18.7-20.8-- 6.3 0.3---- 0.0-- 4---------
2011-02-25-10.1 -4.7-16.4-18.5-- 6.0 1.7---- 0.0-- 3---------
2011-02-26 -3.7 -1.0 -7.1 -8.0-- 8.0 3.3---- 0.0-- 2---------
2011-02-27 -2.2 4.1 -6.1 -8.0-- 6.0 2.3---- 0.0-- 2---------
2011-02-28 -4.5 1.0 -8.1-10.1-- 3.0 2.7---- 0.0------------
2011-03-01 -2.1 2.7 -5.0 -7.4-- 1.0 1.7---- 0.0------------
2011-03-02 -3.3 2.5 -7.5 -9.1-- 2.0 2.3---- 0.0------------
2011-03-03 0.3 6.2 -2.3 -4.9-- 5.0 0.3---- 0.0------------
2011-03-04 -1.9 6.8 -6.9 -7.5-- 3.0 1.0---- 0.0------------
2011-03-05 2.1 7.9 -1.5 -3.9-- 4.0 5.0---- 0.0------------
2011-03-06 -0.9 3.0 -3.1 -3.7-- 3.7 4.3---- 0.0------------
2011-03-07 -2.8 1.3 -6.0 -7.8-- 2.0 2.3---- 0.0------------
2011-03-08 -2.1 4.3 -5.2 -7.2-- 3.3 1.7---- 0.0------------
2011-03-09 0.2 8.1 -5.5 -7.6-- 3.0 3.0---- 0.0------------
2011-03-10 2.6 3.3 1.9 1.8-- 8.0 2.7---- 0.2------------
2011-03-11 5.9 10.6 2.1 2.1-- 7.3 4.3---- 0.3------------
2011-03-12 5.8 15.1 1.0 -0.8-- 3.0 2.3---- 0.0------------
2011-03-13 7.1 14.9 2.6 2.4-- 5.7 1.7---- 0.0------------
2011-03-14 11.3 16.5 6.9 6.2-- 4.0 3.0---- 0.0------------
2011-03-15 10.7 18.7 6.4 6.1-- 4.0 1.3---- 0.0------------
466.0 ms

 

Źródłem pochodzenia danych jest Instytut Meteorologii i Gospodarki Wodnej – Państwowy Instytut Badawczy. Dane Instytutu Meteorologii i Gospodarki Wodnej – Państwowego Instytutu Badawczego zostały przetworzone.

Dane źródłowe można odnaleźć na stronie https://dane.imgw.pl